sensor_id;sensor_type;location;lat;lon;timestamp;pressure;altitude;pressure_sealevel;temperature;humidity
33075;BME280;19433;51.292;6.868;2022-09-09T00:03:54;99666.59;;;13.54;100.00
33075;BME280;19433;51.292;6.868;2022-09-09T00:06:30;99669.22;;;13.60;100.00
33075;BME280;19433;51.292;6.868;2022-09-09T00:09:01;99668.28;;;13.55;100.00
33075;BME280;19433;51.292;6.868;2022-09-09T00:11:39;99676.97;;;13.47;100.00
33075;BME280;19433;51.292;6.868;2022-09-09T00:14:18;99670.09;;;13.49;100.00
33075;BME280;19433;51.292;6.868;2022-09-09T00:16:50;99667.22;;;13.32;100.00
33075;BME280;19433;51.292;6.868;2022-09-09T00:19:33;99667.69;;;13.29;100.00
33075;BME280;19433;51.292;6.868;2022-09-09T00:22:17;99670.72;;;13.28;100.00
33075;BME280;19433;51.292;6.868;2022-09-09T00:24:51;99664.59;;;13.26;100.00
33075;BME280;19433;51.292;6.868;2022-09-09T00:30:00;99667.44;;;13.31;100.00
33075;BME280;19433;51.292;6.868;2022-09-09T00:32:28;99664.91;;;13.06;100.00
33075;BME280;19433;51.292;6.868;2022-09-09T00:34:58;99652.72;;;13.07;100.00
33075;BME280;19433;51.292;6.868;2022-09-09T00:37:28;99655.88;;;13.11;100.00
33075;BME280;19433;51.292;6.868;2022-09-09T00:39:59;99665.38;;;13.03;100.00
33075;BME280;19433;51.292;6.868;2022-09-09T00:42:41;99661.53;;;13.04;100.00
33075;BME280;19433;51.292;6.868;2022-09-09T00:45:46;99657.78;;;13.10;100.00
33075;BME280;19433;51.292;6.868;2022-09-09T00:48:18;99668.66;;;13.12;100.00
33075;BME280;19433;51.292;6.868;2022-09-09T00:50:53;99665.88;;;13.12;100.00
33075;BME280;19433;51.292;6.868;2022-09-09T00:53:51;99660.47;;;13.28;100.00
33075;BME280;19433;51.292;6.868;2022-09-09T00:56:25;99657.34;;;13.25;100.00
33075;BME280;19433;51.292;6.868;2022-09-09T00:59:25;99657.19;;;13.08;100.00
33075;BME280;19433;51.292;6.868;2022-09-09T01:01:53;99654.78;;;13.12;100.00
33075;BME280;19433;51.292;6.868;2022-09-09T01:04:28;99661.56;;;13.39;100.00
33075;BME280;19433;51.292;6.868;2022-09-09T01:07:03;99654.16;;;13.45;100.00
33075;BME280;19433;51.292;6.868;2022-09-09T01:09:45;99656.63;;;13.41;100.00
33075;BME280;19433;51.292;6.868;2022-09-09T01:12:38;99664.78;;;13.48;100.00
33075;BME280;19433;51.292;6.868;2022-09-09T01:15:14;99664.66;;;13.54;100.00
33075;BME280;19433;51.292;6.868;2022-09-09T01:20:23;99658.28;;;13.54;100.00
33075;BME280;19433;51.292;6.868;2022-09-09T01:23:04;99649.75;;;13.44;100.00
33075;BME280;19433;51.292;6.868;2022-09-09T01:28:26;99653.84;;;13.41;100.00
33075;BME280;19433;51.292;6.868;2022-09-09T01:30:52;99653.84;;;13.41;100.00
33075;BME280;19433;51.292;6.868;2022-09-09T01:33:19;99655.88;;;13.34;100.00
33075;BME280;19433;51.292;6.868;2022-09-09T01:35:59;99657.94;;;13.38;100.00
33075;BME280;19433;51.292;6.868;2022-09-09T01:38:26;99656.47;;;13.36;100.00
33075;BME280;19433;51.292;6.868;2022-09-09T01:40:53;99641.66;;;13.19;100.00
33075;BME280;19433;51.292;6.868;2022-09-09T01:43:20;99654.44;;;13.31;100.00
33075;BME280;19433;51.292;6.868;2022-09-09T01:45:48;99639.69;;;13.54;100.00
33075;BME280;19433;51.292;6.868;2022-09-09T01:48:15;99650.34;;;13.22;100.00
33075;BME280;19433;51.292;6.868;2022-09-09T01:50:40;99643.56;;;13.30;100.00
33075;BME280;19433;51.292;6.868;2022-09-09T01:53:06;99641.75;;;13.00;100.00
33075;BME280;19433;51.292;6.868;2022-09-09T01:55:38;99650.19;;;12.94;100.00
33075;BME280;19433;51.292;6.868;2022-09-09T01:58:27;99639.72;;;13.31;100.00
33075;BME280;19433;51.292;6.868;2022-09-09T02:03:31;99637.88;;;13.01;100.00
33075;BME280;19433;51.292;6.868;2022-09-09T02:08:48;99649.72;;;13.55;100.00
33075;BME280;19433;51.292;6.868;2022-09-09T02:11:16;99648.03;;;13.54;100.00
33075;BME280;19433;51.292;6.868;2022-09-09T02:13:44;99651.50;;;13.61;100.00
33075;BME280;19433;51.292;6.868;2022-09-09T02:19:11;99649.88;;;13.77;100.00
33075;BME280;19433;51.292;6.868;2022-09-09T02:21:41;99653.91;;;13.69;100.00
33075;BME280;19433;51.292;6.868;2022-09-09T02:24:08;99653.53;;;13.66;100.00
33075;BME280;19433;51.292;6.868;2022-09-09T02:26:38;99652.28;;;13.85;100.00
33075;BME280;19433;51.292;6.868;2022-09-09T02:29:08;99651.75;;;14.00;100.00
33075;BME280;19433;51.292;6.868;2022-09-09T02:31:36;99651.22;;;14.15;100.00
33075;BME280;19433;51.292;6.868;2022-09-09T02:34:03;99648.19;;;14.16;100.00
33075;BME280;19433;51.292;6.868;2022-09-09T02:36:32;99653.28;;;14.19;100.00
33075;BME280;19433;51.292;6.868;2022-09-09T02:38:59;99648.75;;;14.30;100.00
33075;BME280;19433;51.292;6.868;2022-09-09T02:41:33;99645.22;;;14.34;100.00
33075;BME280;19433;51.292;6.868;2022-09-09T02:43:59;99642.94;;;14.31;100.00
33075;BME280;19433;51.292;6.868;2022-09-09T02:46:36;99647.63;;;14.42;100.00
33075;BME280;19433;51.292;6.868;2022-09-09T02:52:02;99642.50;;;14.51;100.00
33075;BME280;19433;51.292;6.868;2022-09-09T02:54:32;99639.72;;;14.51;100.00
33075;BME280;19433;51.292;6.868;2022-09-09T02:57:21;99641.97;;;14.54;100.00
33075;BME280;19433;51.292;6.868;2022-09-09T02:59:47;99633.75;;;14.59;100.00
33075;BME280;19433;51.292;6.868;2022-09-09T03:02:13;99637.38;;;14.60;100.00
33075;BME280;19433;51.292;6.868;2022-09-09T03:04:39;99627.09;;;14.60;100.00
33075;BME280;19433;51.292;6.868;2022-09-09T03:07:06;99633.84;;;14.64;100.00
33075;BME280;19433;51.292;6.868;2022-09-09T03:09:31;99636.53;;;14.76;100.00
33075;BME280;19433;51.292;6.868;2022-09-09T03:12:00;99627.69;;;14.79;100.00
33075;BME280;19433;51.292;6.868;2022-09-09T03:14:25;99632.81;;;14.70;100.00
33075;BME280;19433;51.292;6.868;2022-09-09T03:16:51;99628.78;;;14.78;100.00
33075;BME280;19433;51.292;6.868;2022-09-09T03:19:17;99626.50;;;14.75;100.00
33075;BME280;19433;51.292;6.868;2022-09-09T03:21:44;99627.75;;;14.67;100.00
33075;BME280;19433;51.292;6.868;2022-09-09T03:24:09;99625.75;;;14.63;100.00
33075;BME280;19433;51.292;6.868;2022-09-09T03:26:35;99630.38;;;14.57;100.00
33075;BME280;19433;51.292;6.868;2022-09-09T03:29:00;99626.16;;;14.55;100.00
33075;BME280;19433;51.292;6.868;2022-09-09T03:31:26;99626.16;;;14.71;100.00
33075;BME280;19433;51.292;6.868;2022-09-09T03:33:55;99626.66;;;14.68;100.00
33075;BME280;19433;51.292;6.868;2022-09-09T03:36:21;99630.78;;;14.83;100.00
33075;BME280;19433;51.292;6.868;2022-09-09T03:38:46;99625.41;;;14.76;100.00
33075;BME280;19433;51.292;6.868;2022-09-09T03:41:12;99631.47;;;14.73;100.00
33075;BME280;19433;51.292;6.868;2022-09-09T03:43:37;99624.41;;;14.65;100.00
33075;BME280;19433;51.292;6.868;2022-09-09T03:46:03;99633.50;;;14.77;100.00
33075;BME280;19433;51.292;6.868;2022-09-09T03:48:28;99634.34;;;14.78;100.00
33075;BME280;19433;51.292;6.868;2022-09-09T03:50:54;99620.34;;;14.90;100.00
33075;BME280;19433;51.292;6.868;2022-09-09T03:53:23;99631.97;;;14.87;100.00
33075;BME280;19433;51.292;6.868;2022-09-09T03:55:51;99621.94;;;14.86;100.00
33075;BME280;19433;51.292;6.868;2022-09-09T03:58:20;99616.81;;;14.77;100.00
33075;BME280;19433;51.292;6.868;2022-09-09T04:00:58;99628.69;;;14.73;100.00
33075;BME280;19433;51.292;6.868;2022-09-09T04:03:25;99618.41;;;14.73;100.00
33075;BME280;19433;51.292;6.868;2022-09-09T04:05:51;99615.47;;;14.63;100.00
33075;BME280;19433;51.292;6.868;2022-09-09T04:08:17;99618.66;;;14.55;100.00
33075;BME280;19433;51.292;6.868;2022-09-09T04:10:45;99623.00;;;14.34;100.00
33075;BME280;19433;51.292;6.868;2022-09-09T04:13:12;99618.38;;;14.40;100.00
33075;BME280;19433;51.292;6.868;2022-09-09T04:15:39;99628.56;;;14.34;100.00
33075;BME280;19433;51.292;6.868;2022-09-09T04:18:04;99634.94;;;14.35;100.00
33075;BME280;19433;51.292;6.868;2022-09-09T04:20:30;99626.16;;;14.26;100.00
33075;BME280;19433;51.292;6.868;2022-09-09T04:22:55;99629.13;;;14.08;100.00
33075;BME280;19433;51.292;6.868;2022-09-09T04:25:21;99622.88;;;14.29;100.00
33075;BME280;19433;51.292;6.868;2022-09-09T04:27:46;99625.91;;;14.28;100.00
33075;BME280;19433;51.292;6.868;2022-09-09T04:30:12;99629.19;;;14.53;100.00
33075;BME280;19433;51.292;6.868;2022-09-09T04:32:37;99623.72;;;14.30;100.00
33075;BME280;19433;51.292;6.868;2022-09-09T04:35:03;99630.63;;;14.27;100.00
33075;BME280;19433;51.292;6.868;2022-09-09T04:37:28;99621.94;;;14.52;100.00
33075;BME280;19433;51.292;6.868;2022-09-09T04:39:54;99621.09;;;14.52;100.00
33075;BME280;19433;51.292;6.868;2022-09-09T04:42:19;99626.09;;;14.50;100.00
33075;BME280;19433;51.292;6.868;2022-09-09T04:44:44;99627.94;;;14.61;100.00
33075;BME280;19433;51.292;6.868;2022-09-09T04:47:10;99630.63;;;14.56;100.00
33075;BME280;19433;51.292;6.868;2022-09-09T04:49:36;99622.09;;;14.46;100.00
33075;BME280;19433;51.292;6.868;2022-09-09T04:52:02;99621.88;;;14.64;100.00
33075;BME280;19433;51.292;6.868;2022-09-09T04:54:28;99635.84;;;14.69;100.00
33075;BME280;19433;51.292;6.868;2022-09-09T04:56:54;99630.38;;;14.57;100.00
33075;BME280;19433;51.292;6.868;2022-09-09T04:59:20;99637.38;;;14.60;100.00
33075;BME280;19433;51.292;6.868;2022-09-09T05:01:45;99634.50;;;14.55;100.00
33075;BME280;19433;51.292;6.868;2022-09-09T05:04:10;99632.56;;;14.55;100.00
33075;BME280;19433;51.292;6.868;2022-09-09T05:06:36;99620.66;;;14.43;100.00
33075;BME280;19433;51.292;6.868;2022-09-09T05:09:02;99626.41;;;14.70;100.00
33075;BME280;19433;51.292;6.868;2022-09-09T05:11:30;99627.59;;;14.74;100.00
33075;BME280;19433;51.292;6.868;2022-09-09T05:13:55;99634.50;;;14.55;100.00
33075;BME280;19433;51.292;6.868;2022-09-09T05:16:22;99635.59;;;14.70;100.00
33075;BME280;19433;51.292;6.868;2022-09-09T05:18:48;99630.97;;;14.93;100.00
33075;BME280;19433;51.292;6.868;2022-09-09T05:21:19;99642.84;;;15.05;100.00
33075;BME280;19433;51.292;6.868;2022-09-09T05:23:45;99624.63;;;14.97;100.00
33075;BME280;19433;51.292;6.868;2022-09-09T05:26:15;99634.84;;;15.08;100.00
33075;BME280;19433;51.292;6.868;2022-09-09T05:28:41;99627.50;;;15.19;100.00
33075;BME280;19433;51.292;6.868;2022-09-09T05:31:08;99630.38;;;15.24;100.00
33075;BME280;19433;51.292;6.868;2022-09-09T05:33:35;99622.69;;;15.14;100.00
33075;BME280;19433;51.292;6.868;2022-09-09T05:38:34;99622.78;;;15.20;100.00
33075;BME280;19433;51.292;6.868;2022-09-09T05:41:01;99622.00;;;15.24;100.00
33075;BME280;19433;51.292;6.868;2022-09-09T05:43:28;99626.75;;;15.24;100.00
33075;BME280;19433;51.292;6.868;2022-09-09T05:48:28;99611.78;;;15.30;100.00
33075;BME280;19433;51.292;6.868;2022-09-09T05:50:53;99622.91;;;15.30;100.00
33075;BME280;19433;51.292;6.868;2022-09-09T05:53:19;99627.81;;;15.39;100.00
33075;BME280;19433;51.292;6.868;2022-09-09T05:55:45;99618.59;;;15.56;100.00
33075;BME280;19433;51.292;6.868;2022-09-09T05:58:11;99635.19;;;15.67;100.00
33075;BME280;19433;51.292;6.868;2022-09-09T06:00:36;99628.97;;;15.82;100.00
33075;BME280;19433;51.292;6.868;2022-09-09T06:03:03;99637.13;;;15.89;100.00
33075;BME280;19433;51.292;6.868;2022-09-09T06:05:29;99633.72;;;16.08;100.00
33075;BME280;19433;51.292;6.868;2022-09-09T06:07:55;99635.75;;;16.13;100.00
33075;BME280;19433;51.292;6.868;2022-09-09T06:10:21;99644.94;;;16.13;100.00
33075;BME280;19433;51.292;6.868;2022-09-09T06:12:46;99646.66;;;16.19;100.00
33075;BME280;19433;51.292;6.868;2022-09-09T06:15:12;99640.91;;;16.04;100.00
33075;BME280;19433;51.292;6.868;2022-09-09T06:17:37;99649.16;;;16.16;100.00
33075;BME280;19433;51.292;6.868;2022-09-09T06:20:04;99645.28;;;16.17;100.00
33075;BME280;19433;51.292;6.868;2022-09-09T06:22:30;99645.06;;;16.24;100.00
33075;BME280;19433;51.292;6.868;2022-09-09T06:24:55;99642.47;;;16.17;100.00
33075;BME280;19433;51.292;6.868;2022-09-09T06:27:20;99656.16;;;16.18;100.00
33075;BME280;19433;51.292;6.868;2022-09-09T06:29:46;99640.38;;;16.02;100.00
33075;BME280;19433;51.292;6.868;2022-09-09T06:32:11;99645.47;;;16.10;100.00
33075;BME280;19433;51.292;6.868;2022-09-09T06:34:36;99647.00;;;16.23;100.00
33075;BME280;19433;51.292;6.868;2022-09-09T06:37:02;99655.63;;;16.22;99.86
33075;BME280;19433;51.292;6.868;2022-09-09T06:39:27;99646.47;;;16.26;99.71
33075;BME280;19433;51.292;6.868;2022-09-09T06:41:52;99657.19;;;16.34;99.53
33075;BME280;19433;51.292;6.868;2022-09-09T06:44:18;99651.03;;;16.37;99.73
33075;BME280;19433;51.292;6.868;2022-09-09T06:46:44;99658.28;;;16.60;97.06
33075;BME280;19433;51.292;6.868;2022-09-09T06:49:09;99657.22;;;16.66;96.71
33075;BME280;19433;51.292;6.868;2022-09-09T06:51:36;99651.66;;;16.66;97.20
33075;BME280;19433;51.292;6.868;2022-09-09T06:54:03;99660.13;;;17.08;95.17
33075;BME280;19433;51.292;6.868;2022-09-09T06:56:31;99660.38;;;18.58;87.47
33075;BME280;19433;51.292;6.868;2022-09-09T06:58:59;99672.75;;;19.23;82.03
33075;BME280;19433;51.292;6.868;2022-09-09T07:01:27;99669.94;;;18.93;81.97
33075;BME280;19433;51.292;6.868;2022-09-09T07:03:55;99667.28;;;18.31;85.00
33075;BME280;19433;51.292;6.868;2022-09-09T07:06:23;99672.66;;;18.47;84.04
33075;BME280;19433;51.292;6.868;2022-09-09T07:08:53;99673.78;;;18.56;84.57
33075;BME280;19433;51.292;6.868;2022-09-09T07:11:21;99676.41;;;18.93;80.61
33075;BME280;19433;51.292;6.868;2022-09-09T07:13:48;99672.72;;;18.63;80.43
33075;BME280;19433;51.292;6.868;2022-09-09T07:16:16;99673.97;;;18.35;81.76
33075;BME280;19433;51.292;6.868;2022-09-09T07:18:42;99671.97;;;18.15;83.29
33075;BME280;19433;51.292;6.868;2022-09-09T07:21:10;99676.91;;;17.92;84.55
33075;BME280;19433;51.292;6.868;2022-09-09T07:23:37;99681.13;;;18.00;83.65
33075;BME280;19433;51.292;6.868;2022-09-09T07:26:07;99683.09;;;18.00;83.44
33075;BME280;19433;51.292;6.868;2022-09-09T07:28:33;99686.47;;;18.02;81.73
33075;BME280;19433;51.292;6.868;2022-09-09T07:31:00;99685.81;;;17.84;83.92
33075;BME280;19433;51.292;6.868;2022-09-09T07:33:27;99695.66;;;17.97;82.59
33075;BME280;19433;51.292;6.868;2022-09-09T07:38:29;99685.34;;;17.61;84.17
33075;BME280;19433;51.292;6.868;2022-09-09T07:41:06;99702.56;;;17.84;82.41
33075;BME280;19433;51.292;6.868;2022-09-09T07:43:33;99693.63;;;17.82;81.55
33075;BME280;19433;51.292;6.868;2022-09-09T07:45:59;99700.59;;;17.80;81.67
33075;BME280;19433;51.292;6.868;2022-09-09T07:48:26;99707.94;;;17.96;81.58
33075;BME280;19433;51.292;6.868;2022-09-09T07:50:51;99702.47;;;18.16;81.29
33075;BME280;19433;51.292;6.868;2022-09-09T07:53:17;99701.25;;;18.70;80.28
33075;BME280;19433;51.292;6.868;2022-09-09T07:55:42;99707.44;;;18.97;78.58
33075;BME280;19433;51.292;6.868;2022-09-09T07:58:08;99708.31;;;19.28;76.89
33075;BME280;19433;51.292;6.868;2022-09-09T08:00:33;99696.84;;;19.24;75.65
33075;BME280;19433;51.292;6.868;2022-09-09T08:02:58;99707.47;;;19.17;76.03
33075;BME280;19433;51.292;6.868;2022-09-09T08:05:26;99703.00;;;19.06;76.25
33075;BME280;19433;51.292;6.868;2022-09-09T08:07:52;99709.97;;;18.98;76.13
33075;BME280;19433;51.292;6.868;2022-09-09T08:10:17;99708.03;;;18.94;74.33
33075;BME280;19433;51.292;6.868;2022-09-09T08:12:43;99709.81;;;18.43;76.69
33075;BME280;19433;51.292;6.868;2022-09-09T08:15:08;99712.72;;;18.06;77.83
33075;BME280;19433;51.292;6.868;2022-09-09T08:17:33;99700.28;;;17.71;76.94
33075;BME280;19433;51.292;6.868;2022-09-09T08:19:59;99711.84;;;17.58;77.06
33075;BME280;19433;51.292;6.868;2022-09-09T08:22:28;99711.59;;;17.59;77.87
33075;BME280;19433;51.292;6.868;2022-09-09T08:24:54;99710.16;;;17.94;76.43
33075;BME280;19433;51.292;6.868;2022-09-09T08:27:19;99716.50;;;17.79;75.85
33075;BME280;19433;51.292;6.868;2022-09-09T08:29:44;99721.16;;;18.11;74.73
33075;BME280;19433;51.292;6.868;2022-09-09T08:32:10;99713.22;;;18.55;72.95
33075;BME280;19433;51.292;6.868;2022-09-09T08:34:35;99715.88;;;19.17;72.68
33075;BME280;19433;51.292;6.868;2022-09-09T08:37:00;99719.97;;;20.11;67.98
33075;BME280;19433;51.292;6.868;2022-09-09T08:39:26;99711.31;;;20.67;65.45
33075;BME280;19433;51.292;6.868;2022-09-09T08:50:30;99716.34;;;22.11;56.90
33075;BME280;19433;51.292;6.868;2022-09-09T08:55:49;99721.41;;;21.51;57.23
33075;BME280;19433;51.292;6.868;2022-09-09T08:58:35;99716.16;;;21.00;60.76
33075;BME280;19433;51.292;6.868;2022-09-09T09:04:11;99716.56;;;20.84;60.14
33075;BME280;19433;51.292;6.868;2022-09-09T09:12:28;99710.53;;;19.46;64.43
33075;BME280;19433;51.292;6.868;2022-09-09T09:14:55;99710.81;;;19.29;65.14
33075;BME280;19433;51.292;6.868;2022-09-09T09:17:25;99704.09;;;19.56;64.55
33075;BME280;19433;51.292;6.868;2022-09-09T09:19:52;99707.19;;;19.64;64.26
33075;BME280;19433;51.292;6.868;2022-09-09T09:29:55;99712.22;;;18.91;66.61
33075;BME280;19433;51.292;6.868;2022-09-09T09:32:24;99700.44;;;18.74;67.32
33075;BME280;19433;51.292;6.868;2022-09-09T09:34:54;99713.91;;;19.03;67.10
33075;BME280;19433;51.292;6.868;2022-09-09T09:37:31;99706.00;;;18.79;67.68
33075;BME280;19433;51.292;6.868;2022-09-09T09:40:08;99720.75;;;18.54;67.20
33075;BME280;19433;51.292;6.868;2022-09-09T09:42:34;99712.41;;;18.65;66.87
33075;BME280;19433;51.292;6.868;2022-09-09T09:45:20;99716.38;;;18.74;67.26
33075;BME280;19433;51.292;6.868;2022-09-09T09:48:01;99723.69;;;19.15;65.82
33075;BME280;19433;51.292;6.868;2022-09-09T09:50:27;99722.16;;;20.29;61.64
33075;BME280;19433;51.292;6.868;2022-09-09T09:53:00;99738.44;;;21.94;57.12
33075;BME280;19433;51.292;6.868;2022-09-09T09:55:28;99738.47;;;25.82;45.39
33075;BME280;19433;51.292;6.868;2022-09-09T09:58:02;99748.81;;;26.96;40.97
33075;BME280;19433;51.292;6.868;2022-09-09T10:00:28;99743.09;;;29.44;33.60
33075;BME280;19433;51.292;6.868;2022-09-09T10:02:53;99749.53;;;29.32;32.88
33075;BME280;19433;51.292;6.868;2022-09-09T10:05:21;99740.03;;;28.69;34.15
33075;BME280;19433;51.292;6.868;2022-09-09T10:07:59;99748.03;;;27.30;35.92
33075;BME280;19433;51.292;6.868;2022-09-09T10:10:35;99731.28;;;25.76;39.34
33075;BME280;19433;51.292;6.868;2022-09-09T10:13:11;99731.16;;;25.00;41.69
33075;BME280;19433;51.292;6.868;2022-09-09T10:15:53;99726.44;;;24.00;44.74
33075;BME280;19433;51.292;6.868;2022-09-09T10:18:56;99726.28;;;23.45;45.79
33075;BME280;19433;51.292;6.868;2022-09-09T10:21:38;99713.59;;;22.30;48.55
33075;BME280;19433;51.292;6.868;2022-09-09T10:24:32;99708.75;;;21.83;49.79
33075;BME280;19433;51.292;6.868;2022-09-09T10:27:19;99724.09;;;22.43;48.96
33075;BME280;19433;51.292;6.868;2022-09-09T10:37:47;99705.22;;;21.96;50.97
33075;BME280;19433;51.292;6.868;2022-09-09T10:40:33;99708.34;;;22.18;48.08
33075;BME280;19433;51.292;6.868;2022-09-09T10:46:15;99695.44;;;21.88;50.56
33075;BME280;19433;51.292;6.868;2022-09-09T10:49:09;99699.50;;;22.06;50.35
33075;BME280;19433;51.292;6.868;2022-09-09T10:55:09;99709.94;;;22.48;49.02
33075;BME280;19433;51.292;6.868;2022-09-09T10:57:47;99694.13;;;23.78;46.64
33075;BME280;19433;51.292;6.868;2022-09-09T11:02:39;99699.06;;;24.00;46.46
33075;BME280;19433;51.292;6.868;2022-09-09T11:05:14;99696.19;;;23.40;46.99
33075;BME280;19433;51.292;6.868;2022-09-09T11:07:45;99690.41;;;22.57;49.58
33075;BME280;19433;51.292;6.868;2022-09-09T11:10:17;99692.69;;;22.12;49.97
33075;BME280;19433;51.292;6.868;2022-09-09T11:12:48;99699.47;;;23.94;46.52
33075;BME280;19433;51.292;6.868;2022-09-09T11:15:23;99692.06;;;25.16;43.08
33075;BME280;19433;51.292;6.868;2022-09-09T11:17:54;99696.44;;;25.98;41.83
33075;BME280;19433;51.292;6.868;2022-09-09T11:20:21;99687.91;;;25.36;41.91
33075;BME280;19433;51.292;6.868;2022-09-09T11:22:52;99696.28;;;24.41;43.40
33075;BME280;19433;51.292;6.868;2022-09-09T11:25:26;99694.63;;;23.15;46.48
33075;BME280;19433;51.292;6.868;2022-09-09T11:34:33;99674.97;;;19.16;67.49
33075;BME280;19433;51.292;6.868;2022-09-09T11:39:53;99688.19;;;18.13;76.20
33075;BME280;19433;51.292;6.868;2022-09-09T11:42:25;99694.28;;;18.00;77.31
33075;BME280;19433;51.292;6.868;2022-09-09T11:44:51;99691.81;;;18.13;75.39
33075;BME280;19433;51.292;6.868;2022-09-09T11:47:27;99692.09;;;18.12;76.46
33075;BME280;19433;51.292;6.868;2022-09-09T11:52:44;99689.84;;;19.52;72.87
33075;BME280;19433;51.292;6.868;2022-09-09T11:55:33;99696.81;;;21.38;59.78
33075;BME280;19433;51.292;6.868;2022-09-09T12:00:44;99704.53;;;21.17;59.10
33075;BME280;19433;51.292;6.868;2022-09-09T12:03:41;99699.34;;;20.51;60.48
33075;BME280;19433;51.292;6.868;2022-09-09T12:06:17;99691.38;;;20.14;63.02
33075;BME280;19433;51.292;6.868;2022-09-09T12:08:49;99692.25;;;19.89;61.90
33075;BME280;19433;51.292;6.868;2022-09-09T12:11:28;99694.88;;;19.50;63.69
33075;BME280;19433;51.292;6.868;2022-09-09T12:13:57;99690.09;;;19.46;62.88
33075;BME280;19433;51.292;6.868;2022-09-09T12:16:34;99691.22;;;19.29;65.61
33075;BME280;19433;51.292;6.868;2022-09-09T12:19:06;99704.13;;;19.20;67.65
33075;BME280;19433;51.292;6.868;2022-09-09T12:21:39;99706.78;;;20.07;69.46
33075;BME280;19433;51.292;6.868;2022-09-09T12:24:11;99705.50;;;21.99;62.15
33075;BME280;19433;51.292;6.868;2022-09-09T12:26:57;99710.56;;;22.45;58.49
33075;BME280;19433;51.292;6.868;2022-09-09T12:29:29;99704.81;;;22.31;57.06
33075;BME280;19433;51.292;6.868;2022-09-09T12:32:13;99694.06;;;22.15;55.99
33075;BME280;19433;51.292;6.868;2022-09-09T12:34:46;99691.84;;;22.54;54.59
33075;BME280;19433;51.292;6.868;2022-09-09T12:40:00;99687.03;;;24.63;48.04
33075;BME280;19433;51.292;6.868;2022-09-09T12:42:27;99685.63;;;24.25;47.85
33075;BME280;19433;51.292;6.868;2022-09-09T12:44:57;99688.03;;;22.88;50.29
33075;BME280;19433;51.292;6.868;2022-09-09T12:47:34;99677.75;;;21.59;53.43
33075;BME280;19433;51.292;6.868;2022-09-09T12:50:02;99685.22;;;21.45;55.29
33075;BME280;19433;51.292;6.868;2022-09-09T12:52:33;99683.50;;;21.49;53.20
33075;BME280;19433;51.292;6.868;2022-09-09T12:55:02;99670.44;;;21.34;53.28
33075;BME280;19433;51.292;6.868;2022-09-09T12:57:34;99671.22;;;21.00;54.89
33075;BME280;19433;51.292;6.868;2022-09-09T13:00:28;99678.00;;;20.55;56.70
33075;BME280;19433;51.292;6.868;2022-09-09T13:02:57;99669.25;;;19.97;58.76
33075;BME280;19433;51.292;6.868;2022-09-09T13:05:34;99671.28;;;19.72;61.13
33075;BME280;19433;51.292;6.868;2022-09-09T13:08:08;99665.72;;;19.66;61.34
33075;BME280;19433;51.292;6.868;2022-09-09T13:10:51;99663.19;;;19.65;62.69
33075;BME280;19433;51.292;6.868;2022-09-09T13:13:42;99663.78;;;19.52;63.43
33075;BME280;19433;51.292;6.868;2022-09-09T13:16:25;99671.88;;;19.43;63.07
33075;BME280;19433;51.292;6.868;2022-09-09T13:18:51;99676.63;;;19.43;65.84
33075;BME280;19433;51.292;6.868;2022-09-09T13:21:16;99683.34;;;19.72;66.43
33075;BME280;19433;51.292;6.868;2022-09-09T13:23:48;99676.28;;;19.95;66.58
33075;BME280;19433;51.292;6.868;2022-09-09T13:26:25;99676.06;;;19.71;67.66
33075;BME280;19433;51.292;6.868;2022-09-09T13:28:53;99678.56;;;19.73;67.11
33075;BME280;19433;51.292;6.868;2022-09-09T13:33:49;99679.66;;;19.92;67.07
33075;BME280;19433;51.292;6.868;2022-09-09T13:36:15;99674.91;;;19.82;67.65
33075;BME280;19433;51.292;6.868;2022-09-09T13:38:54;99671.47;;;20.06;66.45
33075;BME280;19433;51.292;6.868;2022-09-09T13:41:28;99665.63;;;19.92;67.58
33075;BME280;19433;51.292;6.868;2022-09-09T13:43:55;99661.38;;;20.10;67.45
33075;BME280;19433;51.292;6.868;2022-09-09T13:46:42;99668.59;;;20.21;67.33
33075;BME280;19433;51.292;6.868;2022-09-09T13:51:38;99660.97;;;20.42;67.72
33075;BME280;19433;51.292;6.868;2022-09-09T13:54:05;99644.69;;;20.83;66.70
33075;BME280;19433;51.292;6.868;2022-09-09T13:56:35;99667.75;;;21.48;64.79
33075;BME280;19433;51.292;6.868;2022-09-09T13:59:02;99660.94;;;21.25;65.32
33075;BME280;19433;51.292;6.868;2022-09-09T14:01:28;99654.06;;;20.68;63.84
33075;BME280;19433;51.292;6.868;2022-09-09T14:03:53;99644.25;;;20.06;64.08
33075;BME280;19433;51.292;6.868;2022-09-09T14:06:19;99645.78;;;19.83;64.37
33075;BME280;19433;51.292;6.868;2022-09-09T14:08:47;99648.06;;;19.56;65.04
33075;BME280;19433;51.292;6.868;2022-09-09T14:11:12;99652.56;;;19.52;67.70
33075;BME280;19433;51.292;6.868;2022-09-09T14:13:38;99639.94;;;19.64;70.28
33075;BME280;19433;51.292;6.868;2022-09-09T14:16:04;99638.22;;;19.79;69.88
33075;BME280;19433;51.292;6.868;2022-09-09T14:18:29;99649.81;;;20.21;64.94
33075;BME280;19433;51.292;6.868;2022-09-09T14:20:54;99649.00;;;20.16;64.12
33075;BME280;19433;51.292;6.868;2022-09-09T14:23:20;99659.41;;;20.10;65.11
33075;BME280;19433;51.292;6.868;2022-09-09T14:25:47;99657.25;;;20.51;62.49
33075;BME280;19433;51.292;6.868;2022-09-09T14:28:13;99666.94;;;20.74;60.95
33075;BME280;19433;51.292;6.868;2022-09-09T14:30:42;99660.41;;;20.84;59.62
33075;BME280;19433;51.292;6.868;2022-09-09T14:33:13;99656.38;;;20.61;59.48
33075;BME280;19433;51.292;6.868;2022-09-09T14:35:38;99655.81;;;20.59;60.70
33075;BME280;19433;51.292;6.868;2022-09-09T14:38:05;99641.72;;;20.15;61.31
33075;BME280;19433;51.292;6.868;2022-09-09T14:40:30;99660.09;;;19.56;64.29
33075;BME280;19433;51.292;6.868;2022-09-09T14:42:56;99681.13;;;18.73;64.74
33075;BME280;19433;51.292;6.868;2022-09-09T14:45:23;99692.91;;;18.07;65.44
33075;BME280;19433;51.292;6.868;2022-09-09T14:47:50;99686.66;;;17.85;67.02